Time;durP1;ratioP1;P1;durP2;ratioP2;P2;SDS_P1;SDS_P2;PMS_P1;PMS_P2;Temp;Humidity;BMP_temperature;BMP_pressure;BME280_temperature;BME280_humidity;BME280_pressure;Samples;Min_cycle;Max_cycle;Signal;HPM_P1;HPM_P2
2022/05/20 00:01:59;;;;;;;18.88;12.68;;;13.90;99.30;;;;;;5001552;28;20034;-79
2022/05/20 00:04:25;;;;;;;18.80;12.10;;;13.90;99.30;;;;;;5050838;28;20120;-79
2022/05/20 00:06:51;;;;;;;21.13;12.95;;;13.80;99.40;;;;;;5001747;28;20124;-79
2022/05/20 00:09:17;;;;;;;21.02;12.27;;;13.80;99.40;;;;;;5035556;28;20060;-79
2022/05/20 00:11:42;;;;;;;25.10;13.20;;;13.80;99.50;;;;;;5017879;28;20033;-79
2022/05/20 00:14:08;;;;;;;18.80;11.18;;;13.80;99.50;;;;;;5017732;28;20496;-77
2022/05/20 00:16:37;;;;;;;20.52;12.65;;;13.70;99.60;;;;;;5017504;28;20061;-78
2022/05/20 00:19:04;;;;;;;19.95;13.00;;;13.70;99.60;;;;;;5017517;28;20148;-78
2022/05/20 00:21:31;;;;;;;20.27;13.77;;;13.70;99.70;;;;;;5017685;28;20095;-78
2022/05/20 00:23:57;;;;;;;18.65;12.60;;;13.70;99.70;;;;;;5017270;28;20404;-78
2022/05/20 00:26:22;;;;;;;18.48;13.38;;;13.70;99.80;;;;;;5017465;28;20032;-78
2022/05/20 00:28:48;;;;;;;19.30;13.05;;;13.60;99.90;;;;;;5017569;28;20392;-78
2022/05/20 00:31:16;;;;;;;17.92;12.57;;;13.70;99.90;;;;;;5001087;28;20040;-78
2022/05/20 00:33:42;;;;;;;27.38;13.20;;;13.60;99.90;;;;;;5034888;28;20025;-77
2022/05/20 00:36:08;;;;;;;17.20;13.38;;;13.70;99.90;;;;;;5050322;28;20121;-78
2022/05/20 00:38:34;;;;;;;23.15;13.38;;;13.60;99.90;;;;;;5017446;28;20041;-78
2022/05/20 00:41:00;;;;;;;20.55;14.70;;;13.60;99.90;;;;;;5000730;28;20044;-78
2022/05/20 00:43:28;;;;;;;18.02;13.15;;;13.60;99.90;;;;;;5017208;28;20084;-78
2022/05/20 00:46:00;;;;;;;22.70;14.23;;;13.60;99.90;;;;;;5050054;28;20030;-78
2022/05/20 00:48:27;;;;;;;21.00;13.88;;;13.60;99.90;;;;;;5034620;28;20029;-78
2022/05/20 00:51:25;;;;;;;22.55;14.57;;;13.60;99.90;;;;;;5016699;28;20448;-77
2022/05/20 00:53:55;;;;;;;21.23;13.75;;;13.60;99.90;;;;;;5016183;28;20061;-78
2022/05/20 00:56:25;;;;;;;18.77;13.75;;;13.50;99.90;;;;;;5034084;28;20021;-78
2022/05/20 00:58:52;;;;;;;21.40;13.82;;;13.50;99.90;;;;;;5034963;28;20083;-78
2022/05/20 01:01:19;;;;;;;23.60;13.73;;;13.50;99.90;;;;;;5034416;28;20064;-77
2022/05/20 01:03:46;;;;;;;21.42;13.23;;;13.50;99.90;;;;;;5034709;28;20155;-78
2022/05/20 01:06:11;;;;;;;19.88;13.45;;;13.50;99.90;;;;;;5016963;28;20083;-78
2022/05/20 01:08:39;;;;;;;19.45;13.50;;;13.50;99.90;;;;;;5000237;28;20132;-78
2022/05/20 01:11:04;;;;;;;19.17;13.82;;;13.50;99.90;;;;;;5016864;28;20055;-78
2022/05/20 01:13:31;;;;;;;20.02;13.98;;;13.50;99.90;;;;;;5000225;28;20025;-78
2022/05/20 01:16:02;;;;;;;18.95;12.70;;;13.50;99.90;;;;;;5000277;28;20032;-78
2022/05/20 01:18:31;;;;;;;19.75;13.45;;;13.40;99.90;;;;;;5034091;28;20044;-78
2022/05/20 01:20:57;;;;;;;18.02;13.65;;;13.40;99.90;;;;;;5016378;28;20036;-78
2022/05/20 01:23:26;;;;;;;20.30;13.30;;;13.40;99.90;;;;;;5000234;28;20425;-78
2022/05/20 01:25:55;;;;;;;20.02;13.23;;;13.40;99.90;;;;;;5034141;28;20477;-78
2022/05/20 01:28:23;;;;;;;18.45;13.27;;;13.50;99.90;;;;;;5033927;28;20461;-78
2022/05/20 01:31:04;;;;;;;19.35;13.25;;;13.40;99.90;;;;;;5016695;28;20374;-78
2022/05/20 01:33:37;;;;;;;16.88;12.85;;;13.40;99.90;;;;;;5016246;28;20021;-78
2022/05/20 01:36:06;;;;;;;19.98;13.18;;;13.40;99.90;;;;;;5049283;28;20021;-78
2022/05/20 01:38:31;;;;;;;17.30;12.65;;;13.40;99.90;;;;;;5033734;28;20030;-78
2022/05/20 01:41:02;;;;;;;20.77;14.50;;;13.40;99.90;;;;;;4999722;28;20052;-79
2022/05/20 01:43:37;;;;;;;18.95;13.88;;;13.30;99.90;;;;;;5033805;28;20029;-78
2022/05/20 01:46:12;;;;;;;18.05;13.38;;;13.30;99.90;;;;;;5049122;28;20036;-78
2022/05/20 01:48:55;;;;;;;16.40;12.05;;;13.40;99.90;;;;;;5048789;28;20030;-78
2022/05/20 01:51:25;;;;;;;20.90;13.60;;;13.30;99.90;;;;;;5033602;28;20068;-78
2022/05/20 01:54:06;;;;;;;19.55;13.88;;;13.30;99.90;;;;;;5033708;28;20026;-78
2022/05/20 01:56:38;;;;;;;19.30;13.50;;;13.20;99.90;;;;;;5033489;28;20074;-78
2022/05/20 01:59:10;;;;;;;21.45;14.02;;;13.30;99.90;;;;;;5015666;28;20025;-78
2022/05/20 02:02:02;;;;;;;18.73;14.10;;;13.30;99.90;;;;;;5048762;28;20091;-78
2022/05/20 02:04:34;;;;;;;18.73;12.82;;;13.20;99.90;;;;;;5048676;28;20084;-78
2022/05/20 02:07:05;;;;;;;20.85;14.02;;;13.20;99.90;;;;;;5048640;28;20021;-78
2022/05/20 02:09:42;;;;;;;16.80;13.13;;;13.20;99.90;;;;;;5014910;28;20479;-78
2022/05/20 02:12:10;;;;;;;21.80;14.13;;;13.20;99.90;;;;;;5033372;28;20470;-78
2022/05/20 02:14:46;;;;;;;22.98;14.45;;;13.20;99.90;;;;;;5048588;28;20034;-78
2022/05/20 02:17:34;;;;;;;16.90;13.05;;;13.10;99.90;;;;;;5048540;28;20116;-78
2022/05/20 02:20:44;;;;;;;23.95;15.55;;;13.20;99.90;;;;;;5033240;28;20485;-78
2022/05/20 02:23:14;;;;;;;23.00;15.05;;;13.10;99.90;;;;;;4934254;29;20032;-78
2022/05/20 02:25:46;;;;;;;23.35;14.85;;;13.10;99.90;;;;;;4934124;29;20059;-78
2022/05/20 02:28:29;;;;;;;22.48;15.13;;;13.10;99.90;;;;;;4991448;28;20038;-77
2022/05/20 02:30:55;;;;;;;25.40;15.60;;;13.00;99.90;;;;;;5033155;28;20025;-78
2022/05/20 02:33:24;;;;;;;20.33;14.48;;;13.00;99.90;;;;;;5015759;28;20080;-78
2022/05/20 02:35:50;;;;;;;18.92;14.73;;;13.00;99.90;;;;;;5033113;28;20034;-78
2022/05/20 02:38:19;;;;;;;22.25;16.08;;;13.00;99.90;;;;;;5015656;28;20033;-77
2022/05/20 02:40:48;;;;;;;25.45;16.73;;;13.00;99.90;;;;;;5033077;28;20418;-78
2022/05/20 02:43:14;;;;;;;24.65;16.80;;;12.90;99.90;;;;;;5033076;28;20422;-78
2022/05/20 02:45:42;;;;;;;21.13;15.48;;;12.90;99.90;;;;;;5048446;28;20124;-78
2022/05/20 02:48:08;;;;;;;23.13;16.35;;;12.90;99.90;;;;;;5032935;28;20432;-78
2022/05/20 02:50:34;;;;;;;24.77;15.90;;;12.90;99.90;;;;;;4982787;28;20136;-78
2022/05/20 02:53:00;;;;;;;22.58;17.48;;;12.90;99.90;;;;;;5048312;28;20032;-78
2022/05/20 02:55:27;;;;;;;20.73;16.48;;;12.90;99.90;;;;;;5015453;28;20107;-78
2022/05/20 02:57:52;;;;;;;22.02;15.68;;;12.90;99.90;;;;;;5015431;28;20057;-78
2022/05/20 03:05:46;;;;;;;24.92;15.52;;;12.80;99.90;;;;;;5033472;28;19915;-77
2022/05/20 03:08:12;;;;;;;25.27;15.52;;;12.80;99.90;;;;;;4999038;28;20022;-78
2022/05/20 03:10:38;;;;;;;22.70;17.67;;;12.70;99.90;;;;;;5032860;28;20037;-78
2022/05/20 03:13:06;;;;;;;24.65;18.13;;;12.80;99.90;;;;;;5032901;28;20021;-78
2022/05/20 03:15:33;;;;;;;24.90;17.02;;;12.80;99.90;;;;;;4998780;28;20018;-77
2022/05/20 03:17:59;;;;;;;23.88;16.95;;;12.80;99.90;;;;;;4998934;28;20036;-77
2022/05/20 03:20:25;;;;;;;23.90;16.90;;;12.80;99.90;;;;;;5050499;28;20029;-78
2022/05/20 03:22:51;;;;;;;21.88;17.27;;;12.80;99.90;;;;;;5036367;28;20017;-78
2022/05/20 03:25:17;;;;;;;22.17;16.92;;;12.80;99.90;;;;;;5002377;28;20026;-78
2022/05/20 03:27:43;;;;;;;23.67;16.80;;;12.70;99.90;;;;;;5002282;28;20032;-78
2022/05/20 03:30:10;;;;;;;26.25;17.27;;;12.80;99.90;;;;;;5002233;28;20025;-78
2022/05/20 03:32:37;;;;;;;23.63;18.92;;;12.70;99.90;;;;;;5051549;28;20030;-77
2022/05/20 03:35:04;;;;;;;25.70;16.75;;;12.60;99.90;;;;;;5018048;28;20041;-78
2022/05/20 03:37:30;;;;;;;22.98;16.95;;;12.60;99.90;;;;;;5018533;28;20085;-78
2022/05/20 03:39:56;;;;;;;25.02;18.13;;;12.60;99.90;;;;;;5018444;28;20489;-78
2022/05/20 03:42:23;;;;;;;22.42;16.05;;;12.60;99.90;;;;;;5035924;28;20177;-78
2022/05/20 03:44:50;;;;;;;19.48;15.25;;;12.60;99.90;;;;;;5033076;28;20079;-77
2022/05/20 03:47:15;;;;;;;22.88;14.98;;;12.60;99.90;;;;;;5033126;28;20021;-78
2022/05/20 03:49:42;;;;;;;22.50;15.57;;;12.60;99.90;;;;;;5034830;28;20033;-78
2022/05/20 03:52:08;;;;;;;23.63;15.60;;;12.60;99.90;;;;;;5034417;28;20037;-78
2022/05/20 03:54:34;;;;;;;19.63;14.82;;;12.60;99.90;;;;;;5034327;28;20057;-78
2022/05/20 03:57:01;;;;;;;21.77;14.85;;;12.50;99.90;;;;;;5034463;28;20052;-77
2022/05/20 03:59:27;;;;;;;17.88;14.43;;;12.60;99.90;;;;;;5017086;28;20438;-78
2022/05/20 04:01:59;;;;;;;18.35;14.20;;;12.60;99.90;;;;;;5050964;28;20026;-78
2022/05/20 04:04:29;;;;;;;19.23;14.73;;;12.50;99.90;;;;;;5034306;28;20116;-78
2022/05/20 04:06:55;;;;;;;18.92;13.52;;;12.50;99.90;;;;;;5035506;28;20040;-78
2022/05/20 04:09:20;;;;;;;17.83;13.68;;;12.50;99.90;;;;;;5051006;28;20104;-77
2022/05/20 04:11:48;;;;;;;17.88;13.52;;;12.50;99.90;;;;;;5051244;28;20025;-78
2022/05/20 04:14:13;;;;;;;17.15;13.50;;;12.60;99.90;;;;;;5017708;28;20474;-78
2022/05/20 04:16:39;;;;;;;18.58;12.68;;;12.50;99.90;;;;;;5050469;28;20061;-78
2022/05/20 04:19:04;;;;;;;17.95;13.98;;;12.50;99.90;;;;;;5017738;28;20382;-78
2022/05/20 04:21:30;;;;;;;16.83;13.77;;;12.50;99.90;;;;;;5017464;28;20052;-78
2022/05/20 04:23:56;;;;;;;18.33;14.38;;;12.50;99.90;;;;;;5017391;28;20055;-78
2022/05/20 04:26:21;;;;;;;18.63;14.57;;;12.50;99.90;;;;;;5017730;28;20034;-78
2022/05/20 04:28:47;;;;;;;20.13;15.30;;;12.60;99.90;;;;;;5033755;28;20509;-78
2022/05/20 04:31:13;;;;;;;28.00;18.73;;;12.50;99.90;;;;;;5034172;28;20453;-78
2022/05/20 04:33:39;;;;;;;28.48;19.60;;;12.50;99.90;;;;;;5050267;28;20120;-78
2022/05/20 04:36:06;;;;;;;27.67;18.58;;;12.50;99.90;;;;;;5035072;28;20100;-78
2022/05/20 04:38:32;;;;;;;26.95;19.80;;;12.60;99.90;;;;;;5033191;28;20039;-78
2022/05/20 04:49:11;;;;;;;29.65;22.10;;;12.70;99.90;;;;;;5045435;28;20044;-78
2022/05/20 04:51:40;;;;;;;32.13;22.48;;;12.70;99.90;;;;;;5016454;28;20048;-78
2022/05/20 04:56:52;;;;;;;29.63;23.23;;;12.80;99.90;;;;;;5048077;28;20512;-78
2022/05/20 04:59:20;;;;;;;31.80;23.73;;;12.80;99.90;;;;;;5049920;28;20033;-79
2022/05/20 05:01:46;;;;;;;30.70;22.75;;;12.90;99.90;;;;;;5019155;28;20389;-78
2022/05/20 05:04:12;;;;;;;29.55;22.05;;;12.90;99.90;;;;;;5032728;28;20040;-77
2022/05/20 05:06:38;;;;;;;27.75;21.80;;;12.90;99.90;;;;;;5035774;28;20107;-78
2022/05/20 05:09:04;;;;;;;26.38;20.98;;;13.00;99.90;;;;;;5037083;28;20116;-78
2022/05/20 05:11:29;;;;;;;28.08;21.80;;;13.00;99.90;;;;;;5032706;28;20057;-78
2022/05/20 05:13:55;;;;;;;29.08;22.58;;;13.10;99.90;;;;;;5018430;28;20030;-78
2022/05/20 05:16:21;;;;;;;26.08;20.58;;;13.10;99.90;;;;;;5010353;28;20112;-78
2022/05/20 05:18:47;;;;;;;28.63;22.27;;;13.20;99.90;;;;;;4983211;28;20063;-78
2022/05/20 05:21:14;;;;;;;32.03;21.77;;;13.20;99.90;;;;;;5016262;28;20543;-78
2022/05/20 05:23:40;;;;;;;29.95;22.45;;;13.30;99.90;;;;;;5033889;28;20768;-78
2022/05/20 05:26:06;;;;;;;30.02;22.65;;;13.20;99.90;;;;;;5036352;28;20108;-78
2022/05/20 05:28:32;;;;;;;28.15;22.33;;;13.30;99.90;;;;;;5015855;28;20025;-77
2022/05/20 05:30:58;;;;;;;30.98;23.50;;;13.40;99.90;;;;;;5015848;28;20083;-77
2022/05/20 05:33:25;;;;;;;29.73;22.20;;;13.50;99.90;;;;;;5014821;28;20045;-77
2022/05/20 05:35:51;;;;;;;30.33;22.75;;;13.50;99.90;;;;;;5015958;28;20017;-77
2022/05/20 05:38:17;;;;;;;30.38;23.30;;;13.50;99.90;;;;;;5015863;28;20025;-78
2022/05/20 05:40:42;;;;;;;30.63;22.80;;;13.60;99.90;;;;;;5015686;28;20071;-77
2022/05/20 05:43:09;;;;;;;30.15;21.48;;;13.60;99.90;;;;;;4999657;28;20029;-78
2022/05/20 05:45:35;;;;;;;30.63;21.77;;;13.70;99.90;;;;;;5013669;28;20030;-78
2022/05/20 05:48:06;;;;;;;30.35;23.60;;;13.70;99.90;;;;;;4997313;28;20089;-78
2022/05/20 05:50:33;;;;;;;31.65;22.33;;;13.80;99.90;;;;;;5031655;28;20046;-78
2022/05/20 05:53:06;;;;;;;28.90;21.48;;;13.80;99.90;;;;;;5014889;28;20470;-78
2022/05/20 05:55:31;;;;;;;29.98;23.02;;;13.90;99.90;;;;;;5030595;28;20026;-77
2022/05/20 05:57:57;;;;;;;28.70;21.40;;;13.90;99.90;;;;;;4982053;28;20048;-77
2022/05/20 06:00:23;;;;;;;27.52;20.15;;;14.00;99.90;;;;;;4997708;28;20032;-77
2022/05/20 06:02:49;;;;;;;29.70;18.33;;;14.00;99.90;;;;;;5031637;28;20112;-77
2022/05/20 06:05:16;;;;;;;23.77;16.35;;;14.10;99.90;;;;;;5015029;28;20156;-78
2022/05/20 06:07:41;;;;;;;21.40;16.95;;;14.10;99.90;;;;;;5030817;28;20038;-78
2022/05/20 06:10:07;;;;;;;24.13;15.40;;;14.10;99.90;;;;;;4999192;28;20040;-78
2022/05/20 06:12:33;;;;;;;19.33;13.50;;;14.20;99.90;;;;;;4999032;28;20120;-78
2022/05/20 06:15:03;;;;;;;17.98;12.82;;;14.30;99.90;;;;;;5015265;28;20109;-77
2022/05/20 06:17:31;;;;;;;20.90;12.15;;;14.30;99.90;;;;;;5033249;28;20048;-79
2022/05/20 06:19:56;;;;;;;19.08;12.50;;;14.40;99.90;;;;;;5015092;28;20039;-79
2022/05/20 06:22:22;;;;;;;16.75;10.60;;;14.50;99.90;;;;;;4998016;28;20128;-77
2022/05/20 06:24:47;;;;;;;15.20;10.75;;;14.50;99.90;;;;;;5030284;28;20080;-78
2022/05/20 06:27:13;;;;;;;19.20;11.18;;;14.60;99.90;;;;;;5014813;28;20048;-77
2022/05/20 06:29:38;;;;;;;20.90;10.80;;;14.70;99.90;;;;;;4997309;28;20039;-77
2022/05/20 06:32:04;;;;;;;18.75;11.90;;;14.70;99.90;;;;;;5031228;28;20091;-78
2022/05/20 06:39:48;;;;;;;20.92;12.43;;;14.80;99.90;;;;;;4982351;28;20469;-78
2022/05/20 06:40:32;;;;;;;17.92;11.15;;;14.90;99.90;;;;;;5030682;28;20036;-80
2022/05/20 06:42:58;;;;;;;19.38;11.95;;;15.00;99.90;;;;;;5014697;28;20038;-79
2022/05/20 06:45:24;;;;;;;17.63;12.65;;;15.10;99.90;;;;;;4982539;28;20116;-79
2022/05/20 06:47:49;;;;;;;16.33;12.50;;;15.10;99.90;;;;;;5032465;28;20044;-79
2022/05/20 06:50:15;;;;;;;18.02;12.38;;;15.20;99.90;;;;;;5031154;28;20545;-79
2022/05/20 06:52:40;;;;;;;18.33;12.90;;;15.30;99.90;;;;;;4979381;28;20041;-80
2022/05/20 06:55:08;;;;;;;18.40;12.77;;;15.30;99.90;;;;;;5045393;28;20048;-80
2022/05/20 06:57:38;;;;;;;18.52;11.15;;;15.40;99.90;;;;;;5004770;28;20052;-79
2022/05/20 07:00:05;;;;;;;21.02;12.88;;;15.40;99.90;;;;;;5032978;28;20032;-79
2022/05/20 07:02:30;;;;;;;18.67;12.55;;;15.50;99.90;;;;;;5033220;28;20090;-79
2022/05/20 07:05:14;;;;;;;16.38;11.48;;;15.50;99.90;;;;;;5017157;28;20022;-79
2022/05/20 07:07:40;;;;;;;17.48;11.02;;;15.60;99.90;;;;;;5020341;28;20037;-78
2022/05/20 07:10:08;;;;;;;15.40;10.63;;;15.60;99.90;;;;;;5018570;28;20413;-77
2022/05/20 07:12:34;;;;;;;16.17;10.75;;;15.70;99.90;;;;;;5034042;28;20067;-77
2022/05/20 07:15:00;;;;;;;15.98;10.48;;;15.70;99.90;;;;;;5036384;28;20100;-78
2022/05/20 07:17:27;;;;;;;15.00;9.85;;;15.70;99.90;;;;;;5034618;28;20025;-78
2022/05/20 07:19:53;;;;;;;16.27;10.15;;;15.80;99.70;;;;;;5018255;28;20477;-77
2022/05/20 07:22:19;;;;;;;13.25;9.32;;;15.90;99.40;;;;;;5035781;28;20030;-77
2022/05/20 07:24:44;;;;;;;12.20;8.90;;;16.00;99.30;;;;;;5035805;28;20375;-77
2022/05/20 07:27:10;;;;;;;14.40;9.70;;;16.00;99.10;;;;;;5017924;28;20040;-77
2022/05/20 07:29:36;;;;;;;13.02;9.15;;;16.10;99.00;;;;;;5035723;28;20235;-77
2022/05/20 07:32:02;;;;;;;14.68;9.40;;;16.10;98.80;;;;;;5018197;28;20056;-77
2022/05/20 07:34:28;;;;;;;15.20;9.63;;;16.20;98.70;;;;;;4983198;28;20030;-77
2022/05/20 07:36:54;;;;;;;13.68;8.90;;;16.30;98.60;;;;;;5017858;28;21275;-77
2022/05/20 07:39:20;;;;;;;12.45;8.93;;;16.30;98.40;;;;;;5035276;28;20061;-85
2022/05/20 07:41:47;;;;;;;15.18;9.20;;;16.40;98.40;;;;;;5035629;28;20418;-86
2022/05/20 07:44:13;;;;;;;13.18;8.70;;;16.50;98.30;;;;;;5018397;28;20104;-86
2022/05/20 07:46:38;;;;;;;18.77;9.65;;;16.60;98.20;;;;;;5036087;28;20060;-85
2022/05/20 07:49:05;;;;;;;11.90;8.38;;;16.60;98.10;;;;;;5017900;28;20021;-84
2022/05/20 07:51:33;;;;;;;12.98;8.82;;;16.70;98.00;;;;;;5001721;28;20049;-84
2022/05/20 07:54:12;;;;;;;13.07;7.85;;;16.70;97.80;;;;;;5017616;28;20101;-84
2022/05/20 07:56:57;;;;;;;11.95;8.02;;;16.90;97.70;;;;;;5018072;28;20044;-82
2022/05/20 07:59:55;;;;;;;11.88;8.27;;;17.00;97.40;;;;;;5017956;28;20442;-84
2022/05/20 08:02:26;;;;;;;12.00;8.05;;;17.10;97.30;;;;;;5017265;28;20119;-83
2022/05/20 08:04:55;;;;;;;11.98;7.75;;;17.20;97.20;;;;;;5017841;28;20385;-83
2022/05/20 08:07:25;;;;;;;11.10;7.53;;;17.30;97.30;;;;;;5034076;28;20147;-83
2022/05/20 08:09:51;;;;;;;16.83;8.75;;;17.50;96.90;;;;;;5034121;28;20478;-83
2022/05/20 08:12:16;;;;;;;14.68;9.35;;;17.60;96.70;;;;;;5018003;28;20066;-84
2022/05/20 08:14:42;;;;;;;13.45;9.60;;;17.70;96.50;;;;;;5034070;28;20059;-84
2022/05/20 08:17:08;;;;;;;13.48;8.40;;;17.90;96.30;;;;;;5033720;28;20020;-84
2022/05/20 08:19:34;;;;;;;10.68;7.53;;;18.00;96.10;;;;;;5033677;28;20025;-84
2022/05/20 08:22:00;;;;;;;12.23;7.25;;;18.20;95.80;;;;;;5035202;28;20022;-84
2022/05/20 08:24:26;;;;;;;14.85;8.27;;;18.30;95.50;;;;;;5033905;28;20121;-76
2022/05/20 08:26:52;;;;;;;13.98;7.78;;;18.40;95.20;;;;;;5034451;28;20108;-76
2022/05/20 08:29:18;;;;;;;11.07;6.82;;;18.50;94.80;;;;;;5033918;28;20021;-76
2022/05/20 08:31:45;;;;;;;11.82;7.85;;;18.60;94.40;;;;;;5035053;28;20048;-76
2022/05/20 08:34:11;;;;;;;15.85;8.45;;;18.80;94.20;;;;;;5017457;28;20022;-76
2022/05/20 08:36:38;;;;;;;11.02;5.80;;;18.90;93.90;;;;;;5034283;28;20028;-76
2022/05/20 08:39:05;;;;;;;10.65;7.38;;;18.90;93.70;;;;;;5034248;28;20025;-74
2022/05/20 08:41:38;;;;;;;10.32;7.00;;;19.10;93.40;;;;;;5033232;28;20060;-75
2022/05/20 08:44:06;;;;;;;11.70;6.70;;;19.20;93.10;;;;;;5034667;28;20029;-75
2022/05/20 08:46:32;;;;;;;11.32;6.93;;;19.30;92.90;;;;;;5017239;28;20033;-75
2022/05/20 08:48:58;;;;;;;9.48;6.07;;;19.40;92.60;;;;;;5032765;28;20482;-75
2022/05/20 08:51:29;;;;;;;10.13;5.38;;;19.50;92.10;;;;;;5016692;28;20050;-75
2022/05/20 08:53:55;;;;;;;9.90;5.47;;;19.60;91.70;;;;;;5016355;28;20385;-75
2022/05/20 08:56:23;;;;;;;9.38;4.50;;;19.70;91.70;;;;;;5017060;28;20036;-84
2022/05/20 08:58:53;;;;;;;10.13;4.93;;;19.80;91.10;;;;;;5034742;28;20392;-84
2022/05/20 09:01:29;;;;;;;8.38;4.28;;;20.00;90.30;;;;;;5034118;28;20025;-82
2022/05/20 09:03:55;;;;;;;6.72;2.95;;;20.10;89.60;;;;;;5034393;28;20108;-77
2022/05/20 09:06:21;;;;;;;8.90;3.58;;;20.20;88.60;;;;;;5033619;28;20469;-83
2022/05/20 09:09:09;;;;;;;8.10;3.90;;;20.40;87.10;;;;;;5032598;28;20488;-82
2022/05/20 09:11:35;;;;;;;9.73;4.38;;;20.50;85.70;;;;;;5016157;28;20017;-83
2022/05/20 09:17:23;;;;;;;8.80;4.88;;;20.80;84.10;;;;;;5019057;28;20087;-81
2022/05/20 09:20:05;;;;;;;10.32;6.00;;;20.90;84.00;;;;;;5016575;28;20027;-82
2022/05/20 09:22:37;;;;;;;11.50;6.55;;;21.10;84.00;;;;;;5034246;28;20029;-83
2022/05/20 09:25:11;;;;;;;13.00;6.35;;;21.20;84.00;;;;;;5016253;28;20496;-83
2022/05/20 09:27:39;;;;;;;10.38;6.57;;;21.40;83.60;;;;;;5032596;28;20033;-76
2022/05/20 09:30:07;;;;;;;11.20;5.75;;;21.50;83.20;;;;;;5033394;28;20026;-75
2022/05/20 09:32:36;;;;;;;7.28;4.40;;;21.60;82.50;;;;;;5016230;28;20116;-76
2022/05/20 09:35:11;;;;;;;9.50;4.82;;;21.70;80.20;;;;;;5032629;28;20366;-76
2022/05/20 09:37:38;;;;;;;9.82;4.00;;;21.80;78.30;;;;;;5034070;28;20034;-76
2022/05/20 09:40:33;;;;;;;6.20;4.10;;;21.90;77.30;;;;;;5032467;28;20393;-76
2022/05/20 09:43:00;;;;;;;10.27;4.93;;;21.90;76.10;;;;;;5015958;28;20445;-75
2022/05/20 09:45:26;;;;;;;8.63;3.85;;;21.90;75.00;;;;;;5032752;28;20030;-76
2022/05/20 09:47:57;;;;;;;6.53;3.38;;;22.00;75.00;;;;;;5015631;28;20059;-75
2022/05/20 09:50:28;;;;;;;7.35;3.70;;;22.10;73.90;;;;;;5015736;28;20049;-76
2022/05/20 09:53:07;;;;;;;12.63;5.47;;;22.10;73.70;;;;;;5033928;28;20040;-76
2022/05/20 09:55:40;;;;;;;8.00;5.07;;;22.10;73.30;;;;;;5033367;28;20060;-76
2022/05/20 09:58:27;;;;;;;10.15;5.10;;;22.30;73.20;;;;;;5032241;28;20021;-75
2022/05/20 10:01:15;;;;;;;7.00;3.88;;;22.30;72.80;;;;;;5032075;28;20025;-76
2022/05/20 10:03:50;;;;;;;9.35;4.85;;;22.40;72.40;;;;;;5032010;28;20072;-75
2022/05/20 10:06:21;;;;;;;9.23;5.25;;;22.60;71.80;;;;;;5033260;28;20075;-74
2022/05/20 10:09:03;;;;;;;8.07;4.60;;;22.80;71.70;;;;;;5031845;28;20552;-76
2022/05/20 10:11:38;;;;;;;7.88;3.33;;;23.00;71.60;;;;;;5033667;28;20462;-76
2022/05/20 10:14:28;;;;;;;7.18;2.97;;;23.30;71.40;;;;;;5031380;28;20013;-76
2022/05/20 10:17:06;;;;;;;7.05;3.22;;;23.50;69.40;;;;;;5033170;28;20021;-76
2022/05/20 10:19:50;;;;;;;7.80;3.40;;;23.60;68.20;;;;;;5033151;28;20439;-76
2022/05/20 10:22:25;;;;;;;6.60;3.33;;;23.70;66.80;;;;;;5032969;28;20021;-75
2022/05/20 10:24:50;;;;;;;8.52;3.75;;;23.70;66.40;;;;;;5032028;28;20029;-76
2022/05/20 10:27:22;;;;;;;6.32;3.72;;;23.70;66.30;;;;;;5031766;28;20501;-75
2022/05/20 10:33:01;;;;;;;7.25;3.47;;;23.80;65.10;;;;;;5037531;28;20032;-76
2022/05/20 10:36:08;;;;;;;8.25;3.90;;;23.90;64.80;;;;;;5037183;28;20055;-75
2022/05/20 10:38:54;;;;;;;6.28;3.58;;;24.20;64.60;;;;;;5042979;28;20037;-76
2022/05/20 10:41:47;;;;;;;5.20;2.55;;;24.40;64.40;;;;;;5035534;28;20040;-76
2022/05/20 10:49:56;;;;;;;4.50;2.45;;;25.70;62.70;;;;;;5025943;28;20389;-76
2022/05/20 10:52:34;;;;;;;8.00;2.80;;;26.20;61.50;;;;;;5021893;28;20053;-76
2022/05/20 10:55:13;;;;;;;8.25;2.72;;;26.50;60.40;;;;;;5036766;28;20499;-76
2022/05/20 10:57:56;;;;;;;7.80;2.35;;;26.80;59.60;;;;;;5035452;28;20030;-76
2022/05/20 11:00:25;;;;;;;6.43;3.03;;;27.00;59.40;;;;;;5035771;28;20026;-75
2022/05/20 11:03:13;;;;;;;6.25;2.53;;;27.10;59.20;;;;;;5035694;28;20021;-76
2022/05/20 11:06:15;;;;;;;6.57;2.50;;;27.20;58.30;;;;;;5016893;28;20117;-76
2022/05/20 11:08:53;;;;;;;8.80;2.13;;;27.20;57.80;;;;;;5033808;28;20492;-75
2022/05/20 11:11:48;;;;;;;5.10;2.40;;;27.30;57.90;;;;;;5036247;28;20029;-75
2022/05/20 11:14:25;;;;;;;4.75;2.80;;;27.30;57.40;;;;;;5035539;28;20026;-76
2022/05/20 11:17:09;;;;;;;5.70;2.55;;;27.20;56.70;;;;;;5035302;28;20025;-79
2022/05/20 11:19:54;;;;;;;6.13;2.33;;;27.10;56.50;;;;;;5035282;28;20116;-86
2022/05/20 11:22:44;;;;;;;6.82;2.65;;;27.10;56.30;;;;;;5036679;28;20039;-84
2022/05/20 11:25:27;;;;;;;5.78;2.28;;;27.00;55.20;;;;;;5052136;28;20026;-81
2022/05/20 11:28:12;;;;;;;6.35;3.22;;;27.00;55.10;;;;;;5051819;28;20099;-81
2022/05/20 11:31:02;;;;;;;6.18;2.55;;;26.90;54.40;;;;;;5051808;28;20064;-81
2022/05/20 11:33:31;;;;;;;6.93;2.30;;;26.70;54.20;;;;;;5035000;28;20493;-84
2022/05/20 11:36:22;;;;;;;5.35;2.47;;;26.60;54.40;;;;;;5034235;28;20558;-86
2022/05/20 11:39:16;;;;;;;7.03;2.75;;;26.50;54.00;;;;;;5034591;28;20064;-85
2022/05/20 11:42:03;;;;;;;6.13;2.75;;;26.40;54.10;;;;;;5033502;28;20128;-76
2022/05/20 11:45:10;;;;;;;4.93;2.65;;;26.40;54.50;;;;;;5034912;28;20043;-77
2022/05/20 11:48:05;;;;;;;7.43;3.60;;;26.30;54.70;;;;;;5042275;28;20029;-76
2022/05/20 11:51:05;;;;;;;5.50;3.08;;;26.10;55.00;;;;;;5033715;28;20041;-76
2022/05/20 11:53:44;;;;;;;8.02;3.60;;;26.00;55.50;;;;;;5033211;28;20032;-77
2022/05/20 11:56:35;;;;;;;9.18;4.45;;;25.80;56.00;;;;;;5034225;28;20458;-76
2022/05/20 11:59:12;;;;;;;10.35;4.25;;;25.60;56.40;;;;;;5032447;28;20029;-77
2022/05/20 12:01:38;;;;;;;9.10;5.00;;;25.40;56.90;;;;;;5034485;28;20057;-77
2022/05/20 12:04:07;;;;;;;11.27;5.20;;;25.30;57.30;;;;;;5015992;28;20049;-76
2022/05/20 12:06:42;;;;;;;8.55;5.82;;;25.20;57.70;;;;;;5034570;28;20028;-76
2022/05/20 12:09:27;;;;;;;8.98;5.88;;;25.00;58.00;;;;;;5034700;28;20021;-76
2022/05/20 12:12:24;;;;;;;8.35;5.30;;;24.90;58.60;;;;;;5017217;28;20029;-77
2022/05/20 12:15:08;;;;;;;8.70;5.63;;;24.70;59.10;;;;;;5033729;28;20029;-76
2022/05/20 12:17:47;;;;;;;;;;;24.60;59.60;;;;;;5033920;28;20025;-77
2022/05/20 12:26:24;;;;;;;12.27;7.25;;;24.10;61.20;;;;;;5030256;28;20103;-86
2022/05/20 12:28:50;;;;;;;8.00;5.88;;;23.80;61.70;;;;;;5016742;28;20025;-85
2022/05/20 12:31:23;;;;;;;10.98;7.32;;;23.70;62.10;;;;;;5023982;28;20021;-86
2022/05/20 12:33:59;;;;;;;11.50;7.38;;;23.60;62.80;;;;;;5017432;28;20474;-85
2022/05/20 12:36:27;;;;;;;11.07;7.75;;;23.40;63.30;;;;;;5017106;28;20040;-86
2022/05/20 12:39:15;;;;;;;14.80;7.80;;;23.30;63.60;;;;;;5033723;28;20032;-77
2022/05/20 12:41:44;;;;;;;14.27;7.90;;;23.20;64.60;;;;;;5034376;28;20075;-78
2022/05/20 12:44:21;;;;;;;14.90;8.52;;;23.10;65.20;;;;;;5034670;28;20112;-80
2022/05/20 12:47:05;;;;;;;14.52;8.80;;;23.00;66.20;;;;;;5033310;28;20072;-79
2022/05/20 12:49:36;;;;;;;;;;;22.90;67.60;;;;;;5033731;28;20082;-78
2022/05/20 12:52:48;;;;;;;13.43;8.73;;;22.80;69.10;;;;;;5034016;28;19924;-77
2022/05/20 12:55:13;;;;;;;17.42;9.85;;;22.70;68.90;;;;;;4954485;29;20059;-77
2022/05/20 12:57:48;;;;;;;18.63;11.68;;;22.60;70.00;;;;;;5017877;28;20061;-78
2022/05/20 13:00:16;;;;;;;17.05;11.95;;;22.40;71.40;;;;;;5050045;28;20029;-77
2022/05/20 13:02:52;;;;;;;18.48;12.10;;;22.30;72.60;;;;;;5033220;28;20021;-78
2022/05/20 13:05:25;;;;;;;17.30;11.48;;;22.20;74.20;;;;;;5034610;28;20109;-78
2022/05/20 13:07:53;;;;;;;18.65;13.95;;;22.10;75.20;;;;;;5034379;28;20060;-78
2022/05/20 13:10:31;;;;;;;24.15;15.77;;;22.00;77.00;;;;;;5033144;28;20021;-77
2022/05/20 13:13:22;;;;;;;18.15;13.60;;;21.90;78.70;;;;;;5049680;28;20477;-76
2022/05/20 13:15:51;;;;;;;19.20;13.48;;;21.80;79.40;;;;;;5017795;28;20022;-77
2022/05/20 13:18:19;;;;;;;22.30;14.55;;;21.70;80.00;;;;;;5034235;28;20029;-81
2022/05/20 13:20:47;;;;;;;23.92;15.07;;;21.60;81.20;;;;;;5034463;28;20029;-79
2022/05/20 13:23:26;;;;;;;23.77;15.20;;;21.50;81.60;;;;;;5016674;28;20026;-78
2022/05/20 13:25:52;;;;;;;20.70;14.40;;;21.50;82.40;;;;;;5034215;28;20025;-77
2022/05/20 13:28:36;;;;;;;19.58;15.00;;;21.60;83.00;;;;;;5032875;28;20025;-77
2022/05/20 13:31:06;;;;;;;20.23;13.95;;;21.70;83.60;;;;;;5034055;28;20021;-77
2022/05/20 13:33:33;;;;;;;20.27;14.90;;;21.70;83.80;;;;;;5034178;28;20045;-83